Rumbley, Maryland
Current Conditions -  °F | °C
As of 1:54 AM on Friday 28 Nov 2014 (Local Time) from KWAL Reporting Station
Clear Clear  
Wind Chill: 26°   Ceiling: Unl
Heat Index: 33°   Visibility: 10mi
Dew Point: 30°   Wind: 8mph
Humidity: 89%   Direction: 320°NW
Pressure: 30.16"   Gusts: NA
Location:  38.0995°N, 75.7422°W
Report Text: KWAL 280654Z AUTO 32007KT 10SM CLR 01/M01 A3016 RMK AO2 SLP209 T00061011
Loading
Personal Weather Stations






























Interactive Weather Map New forecast layout! Learn more

10-Day Weather Forecast

Advertisements
Track Severe Weather on mobile